sensor_id;sensor_type;location;lat;lon;timestamp;P1;durP1;ratioP1;P2;durP2;ratioP2
4432;SDS011;2229;48.708;9.706;2023-03-03T00:00:50;17.10;;;6.50;;
4432;SDS011;2229;48.708;9.706;2023-03-03T00:03:18;16.97;;;6.43;;
4432;SDS011;2229;48.708;9.706;2023-03-03T00:05:47;14.80;;;5.67;;
4432;SDS011;2229;48.708;9.706;2023-03-03T00:08:14;10.57;;;5.43;;
4432;SDS011;2229;48.708;9.706;2023-03-03T00:10:43;20.43;;;6.60;;
4432;SDS011;2229;48.708;9.706;2023-03-03T00:13:12;18.40;;;6.67;;
4432;SDS011;2229;48.708;9.706;2023-03-03T00:15:42;18.57;;;6.73;;
4432;SDS011;2229;48.708;9.706;2023-03-03T00:18:16;14.50;;;5.90;;
4432;SDS011;2229;48.708;9.706;2023-03-03T00:20:48;16.87;;;7.07;;
4432;SDS011;2229;48.708;9.706;2023-03-03T00:23:22;19.40;;;7.03;;
4432;SDS011;2229;48.708;9.706;2023-03-03T00:25:54;11.47;;;5.93;;
4432;SDS011;2229;48.708;9.706;2023-03-03T00:28:23;13.73;;;5.83;;
4432;SDS011;2229;48.708;9.706;2023-03-03T00:30:52;14.20;;;4.97;;
4432;SDS011;2229;48.708;9.706;2023-03-03T00:33:24;13.63;;;6.80;;
4432;SDS011;2229;48.708;9.706;2023-03-03T00:35:54;22.90;;;8.40;;
4432;SDS011;2229;48.708;9.706;2023-03-03T00:38:23;16.80;;;6.67;;
4432;SDS011;2229;48.708;9.706;2023-03-03T00:40:50;23.00;;;9.30;;
4432;SDS011;2229;48.708;9.706;2023-03-03T00:43:18;15.23;;;6.90;;
4432;SDS011;2229;48.708;9.706;2023-03-03T00:45:47;23.27;;;9.40;;
4432;SDS011;2229;48.708;9.706;2023-03-03T00:48:20;24.43;;;7.80;;
4432;SDS011;2229;48.708;9.706;2023-03-03T00:50:51;18.30;;;8.27;;
4432;SDS011;2229;48.708;9.706;2023-03-03T00:53:20;16.23;;;7.27;;
4432;SDS011;2229;48.708;9.706;2023-03-03T00:55:49;13.60;;;6.57;;
4432;SDS011;2229;48.708;9.706;2023-03-03T00:58:18;20.53;;;9.13;;
4432;SDS011;2229;48.708;9.706;2023-03-03T01:00:47;23.07;;;8.13;;
4432;SDS011;2229;48.708;9.706;2023-03-03T01:03:18;19.90;;;7.07;;
4432;SDS011;2229;48.708;9.706;2023-03-03T01:05:48;15.13;;;7.13;;
4432;SDS011;2229;48.708;9.706;2023-03-03T01:08:16;10.50;;;5.97;;
4432;SDS011;2229;48.708;9.706;2023-03-03T01:10:45;23.27;;;7.30;;
4432;SDS011;2229;48.708;9.706;2023-03-03T01:13:17;16.87;;;7.00;;
4432;SDS011;2229;48.708;9.706;2023-03-03T01:15:46;15.10;;;8.80;;
4432;SDS011;2229;48.708;9.706;2023-03-03T01:18:13;16.73;;;6.70;;
4432;SDS011;2229;48.708;9.706;2023-03-03T01:20:41;18.83;;;5.70;;
4432;SDS011;2229;48.708;9.706;2023-03-03T01:23:10;25.17;;;9.57;;
4432;SDS011;2229;48.708;9.706;2023-03-03T01:25:38;17.17;;;6.70;;
4432;SDS011;2229;48.708;9.706;2023-03-03T01:28:05;20.20;;;9.20;;
4432;SDS011;2229;48.708;9.706;2023-03-03T01:30:33;21.50;;;7.30;;
4432;SDS011;2229;48.708;9.706;2023-03-03T01:33:02;25.87;;;8.10;;
4432;SDS011;2229;48.708;9.706;2023-03-03T01:35:29;21.97;;;6.83;;
4432;SDS011;2229;48.708;9.706;2023-03-03T01:37:57;16.67;;;7.20;;
4432;SDS011;2229;48.708;9.706;2023-03-03T01:40:27;13.27;;;7.93;;
4432;SDS011;2229;48.708;9.706;2023-03-03T01:42:57;16.40;;;7.63;;
4432;SDS011;2229;48.708;9.706;2023-03-03T01:45:25;13.67;;;6.60;;
4432;SDS011;2229;48.708;9.706;2023-03-03T01:47:55;17.17;;;8.37;;
4432;SDS011;2229;48.708;9.706;2023-03-03T01:50:32;16.47;;;7.77;;
4432;SDS011;2229;48.708;9.706;2023-03-03T01:53:06;19.07;;;8.27;;
4432;SDS011;2229;48.708;9.706;2023-03-03T01:55:40;16.63;;;8.00;;
4432;SDS011;2229;48.708;9.706;2023-03-03T01:58:10;18.97;;;10.70;;
4432;SDS011;2229;48.708;9.706;2023-03-03T02:00:41;18.57;;;7.73;;
4432;SDS011;2229;48.708;9.706;2023-03-03T02:03:11;12.80;;;8.37;;
4432;SDS011;2229;48.708;9.706;2023-03-03T02:05:39;17.90;;;7.03;;
4432;SDS011;2229;48.708;9.706;2023-03-03T02:08:10;20.83;;;8.47;;
4432;SDS011;2229;48.708;9.706;2023-03-03T02:10:43;24.70;;;10.50;;
4432;SDS011;2229;48.708;9.706;2023-03-03T02:13:12;15.03;;;6.97;;
4432;SDS011;2229;48.708;9.706;2023-03-03T02:15:39;10.97;;;6.03;;
4432;SDS011;2229;48.708;9.706;2023-03-03T02:18:08;22.67;;;8.37;;
4432;SDS011;2229;48.708;9.706;2023-03-03T02:20:41;17.80;;;8.17;;
4432;SDS011;2229;48.708;9.706;2023-03-03T02:23:15;16.17;;;6.17;;
4432;SDS011;2229;48.708;9.706;2023-03-03T02:25:52;21.90;;;9.20;;
4432;SDS011;2229;48.708;9.706;2023-03-03T02:28:37;19.63;;;8.17;;
4432;SDS011;2229;48.708;9.706;2023-03-03T02:31:08;20.47;;;8.87;;
4432;SDS011;2229;48.708;9.706;2023-03-03T02:33:38;24.27;;;9.40;;
4432;SDS011;2229;48.708;9.706;2023-03-03T02:36:06;15.83;;;6.90;;
4432;SDS011;2229;48.708;9.706;2023-03-03T02:38:38;16.20;;;7.20;;
4432;SDS011;2229;48.708;9.706;2023-03-03T02:41:12;15.03;;;6.93;;
4432;SDS011;2229;48.708;9.706;2023-03-03T02:43:45;22.77;;;7.47;;
4432;SDS011;2229;48.708;9.706;2023-03-03T02:46:21;16.37;;;7.77;;
4432;SDS011;2229;48.708;9.706;2023-03-03T02:48:48;14.60;;;6.97;;
4432;SDS011;2229;48.708;9.706;2023-03-03T02:51:16;21.10;;;7.53;;
4432;SDS011;2229;48.708;9.706;2023-03-03T02:53:44;15.13;;;7.17;;
4432;SDS011;2229;48.708;9.706;2023-03-03T02:56:13;18.33;;;7.30;;
4432;SDS011;2229;48.708;9.706;2023-03-03T02:58:41;17.60;;;7.00;;
4432;SDS011;2229;48.708;9.706;2023-03-03T03:01:08;26.90;;;8.43;;
4432;SDS011;2229;48.708;9.706;2023-03-03T03:03:36;23.77;;;6.87;;
4432;SDS011;2229;48.708;9.706;2023-03-03T03:06:06;11.60;;;6.50;;
4432;SDS011;2229;48.708;9.706;2023-03-03T03:08:34;13.20;;;7.13;;
4432;SDS011;2229;48.708;9.706;2023-03-03T03:11:02;19.03;;;8.47;;
4432;SDS011;2229;48.708;9.706;2023-03-03T03:13:32;21.53;;;9.47;;
4432;SDS011;2229;48.708;9.706;2023-03-03T03:16:00;27.60;;;9.43;;
4432;SDS011;2229;48.708;9.706;2023-03-03T03:18:28;15.00;;;6.40;;
4432;SDS011;2229;48.708;9.706;2023-03-03T03:20:56;27.73;;;8.90;;
4432;SDS011;2229;48.708;9.706;2023-03-03T03:23:31;17.50;;;7.57;;
4432;SDS011;2229;48.708;9.706;2023-03-03T03:26:00;21.83;;;7.23;;
4432;SDS011;2229;48.708;9.706;2023-03-03T03:28:28;23.37;;;8.87;;
4432;SDS011;2229;48.708;9.706;2023-03-03T03:30:58;13.97;;;7.27;;
4432;SDS011;2229;48.708;9.706;2023-03-03T03:33:26;20.37;;;7.07;;
4432;SDS011;2229;48.708;9.706;2023-03-03T03:35:54;24.03;;;8.43;;
4432;SDS011;2229;48.708;9.706;2023-03-03T03:38:23;26.43;;;10.43;;
4432;SDS011;2229;48.708;9.706;2023-03-03T03:40:51;31.17;;;11.13;;
4432;SDS011;2229;48.708;9.706;2023-03-03T03:43:18;15.60;;;9.30;;
4432;SDS011;2229;48.708;9.706;2023-03-03T03:45:46;15.60;;;6.30;;
4432;SDS011;2229;48.708;9.706;2023-03-03T03:48:16;11.03;;;7.70;;
4432;SDS011;2229;48.708;9.706;2023-03-03T03:50:45;21.53;;;9.27;;
4432;SDS011;2229;48.708;9.706;2023-03-03T03:53:14;22.90;;;7.73;;
4432;SDS011;2229;48.708;9.706;2023-03-03T03:55:42;22.20;;;8.03;;
4432;SDS011;2229;48.708;9.706;2023-03-03T03:58:11;24.60;;;8.87;;
4432;SDS011;2229;48.708;9.706;2023-03-03T04:00:39;19.00;;;8.57;;
4432;SDS011;2229;48.708;9.706;2023-03-03T04:03:07;25.60;;;8.40;;
4432;SDS011;2229;48.708;9.706;2023-03-03T04:05:37;24.57;;;8.60;;
4432;SDS011;2229;48.708;9.706;2023-03-03T04:08:05;21.47;;;8.90;;
4432;SDS011;2229;48.708;9.706;2023-03-03T04:10:33;22.60;;;9.47;;
4432;SDS011;2229;48.708;9.706;2023-03-03T04:13:00;22.30;;;7.50;;
4432;SDS011;2229;48.708;9.706;2023-03-03T04:15:27;14.27;;;7.10;;
4432;SDS011;2229;48.708;9.706;2023-03-03T04:17:55;18.27;;;6.87;;
4432;SDS011;2229;48.708;9.706;2023-03-03T04:20:23;27.20;;;11.40;;
4432;SDS011;2229;48.708;9.706;2023-03-03T04:22:52;19.47;;;7.77;;
4432;SDS011;2229;48.708;9.706;2023-03-03T04:25:21;18.67;;;7.57;;
4432;SDS011;2229;48.708;9.706;2023-03-03T04:27:51;16.20;;;7.03;;
4432;SDS011;2229;48.708;9.706;2023-03-03T04:30:20;15.17;;;7.53;;
4432;SDS011;2229;48.708;9.706;2023-03-03T04:32:51;14.23;;;5.80;;
4432;SDS011;2229;48.708;9.706;2023-03-03T04:35:21;24.33;;;8.40;;
4432;SDS011;2229;48.708;9.706;2023-03-03T04:37:49;15.77;;;7.73;;
4432;SDS011;2229;48.708;9.706;2023-03-03T04:40:18;28.70;;;13.40;;
4432;SDS011;2229;48.708;9.706;2023-03-03T04:42:48;27.67;;;11.07;;
4432;SDS011;2229;48.708;9.706;2023-03-03T04:45:15;20.10;;;8.03;;
4432;SDS011;2229;48.708;9.706;2023-03-03T04:47:44;15.97;;;9.13;;
4432;SDS011;2229;48.708;9.706;2023-03-03T04:50:13;16.20;;;8.90;;
4432;SDS011;2229;48.708;9.706;2023-03-03T04:52:41;14.83;;;8.60;;
4432;SDS011;2229;48.708;9.706;2023-03-03T04:55:11;20.83;;;7.00;;
4432;SDS011;2229;48.708;9.706;2023-03-03T04:57:43;21.00;;;8.03;;
4432;SDS011;2229;48.708;9.706;2023-03-03T05:00:11;23.67;;;7.33;;
4432;SDS011;2229;48.708;9.706;2023-03-03T05:02:39;18.03;;;7.27;;
4432;SDS011;2229;48.708;9.706;2023-03-03T05:05:07;23.17;;;7.73;;
4432;SDS011;2229;48.708;9.706;2023-03-03T05:07:36;23.57;;;8.00;;
4432;SDS011;2229;48.708;9.706;2023-03-03T05:10:05;19.43;;;7.90;;
4432;SDS011;2229;48.708;9.706;2023-03-03T05:12:37;20.93;;;8.20;;
4432;SDS011;2229;48.708;9.706;2023-03-03T05:15:06;20.53;;;8.80;;
4432;SDS011;2229;48.708;9.706;2023-03-03T05:17:34;23.67;;;8.90;;
4432;SDS011;2229;48.708;9.706;2023-03-03T05:20:02;19.63;;;8.00;;
4432;SDS011;2229;48.708;9.706;2023-03-03T05:22:32;17.43;;;6.20;;
4432;SDS011;2229;48.708;9.706;2023-03-03T05:25:00;24.77;;;7.93;;
4432;SDS011;2229;48.708;9.706;2023-03-03T05:27:27;22.10;;;8.33;;
4432;SDS011;2229;48.708;9.706;2023-03-03T05:29:54;11.57;;;5.93;;
4432;SDS011;2229;48.708;9.706;2023-03-03T05:32:22;13.90;;;7.47;;
4432;SDS011;2229;48.708;9.706;2023-03-03T05:34:50;18.23;;;7.17;;
4432;SDS011;2229;48.708;9.706;2023-03-03T05:37:17;12.73;;;7.40;;
4432;SDS011;2229;48.708;9.706;2023-03-03T05:39:44;25.20;;;8.00;;
4432;SDS011;2229;48.708;9.706;2023-03-03T05:42:11;17.13;;;8.00;;
4432;SDS011;2229;48.708;9.706;2023-03-03T05:44:39;25.90;;;9.47;;
4432;SDS011;2229;48.708;9.706;2023-03-03T05:47:07;17.63;;;8.17;;
4432;SDS011;2229;48.708;9.706;2023-03-03T05:49:36;25.37;;;9.00;;
4432;SDS011;2229;48.708;9.706;2023-03-03T05:52:04;15.23;;;7.63;;
4432;SDS011;2229;48.708;9.706;2023-03-03T05:54:31;17.47;;;7.80;;
4432;SDS011;2229;48.708;9.706;2023-03-03T05:56:59;16.57;;;7.37;;
4432;SDS011;2229;48.708;9.706;2023-03-03T05:59:26;18.07;;;6.80;;
4432;SDS011;2229;48.708;9.706;2023-03-03T06:01:53;37.03;;;7.73;;
4432;SDS011;2229;48.708;9.706;2023-03-03T06:04:21;30.33;;;7.20;;
4432;SDS011;2229;48.708;9.706;2023-03-03T06:06:49;21.83;;;7.97;;
4432;SDS011;2229;48.708;9.706;2023-03-03T06:09:17;23.33;;;9.57;;
4432;SDS011;2229;48.708;9.706;2023-03-03T06:11:45;21.43;;;8.03;;
4432;SDS011;2229;48.708;9.706;2023-03-03T06:14:12;21.40;;;6.27;;
4432;SDS011;2229;48.708;9.706;2023-03-03T06:16:39;22.03;;;9.93;;
4432;SDS011;2229;48.708;9.706;2023-03-03T06:19:06;28.57;;;9.87;;
4432;SDS011;2229;48.708;9.706;2023-03-03T06:21:34;12.33;;;7.20;;
4432;SDS011;2229;48.708;9.706;2023-03-03T06:24:04;18.60;;;6.93;;
4432;SDS011;2229;48.708;9.706;2023-03-03T06:26:32;18.53;;;7.30;;
4432;SDS011;2229;48.708;9.706;2023-03-03T06:29:00;15.63;;;5.90;;
4432;SDS011;2229;48.708;9.706;2023-03-03T06:31:30;19.80;;;6.77;;
4432;SDS011;2229;48.708;9.706;2023-03-03T06:33:57;12.07;;;6.87;;
4432;SDS011;2229;48.708;9.706;2023-03-03T06:36:25;17.70;;;7.40;;
4432;SDS011;2229;48.708;9.706;2023-03-03T06:38:52;14.20;;;7.93;;
4432;SDS011;2229;48.708;9.706;2023-03-03T06:41:21;17.53;;;8.17;;
4432;SDS011;2229;48.708;9.706;2023-03-03T06:43:48;21.83;;;7.40;;
4432;SDS011;2229;48.708;9.706;2023-03-03T06:46:15;26.33;;;10.40;;
4432;SDS011;2229;48.708;9.706;2023-03-03T06:48:43;15.50;;;7.43;;
4432;SDS011;2229;48.708;9.706;2023-03-03T06:51:15;26.00;;;9.07;;
4432;SDS011;2229;48.708;9.706;2023-03-03T06:53:51;19.00;;;8.13;;
4432;SDS011;2229;48.708;9.706;2023-03-03T06:56:22;20.80;;;8.50;;
4432;SDS011;2229;48.708;9.706;2023-03-03T06:58:51;24.37;;;7.70;;
4432;SDS011;2229;48.708;9.706;2023-03-03T07:01:20;23.03;;;9.70;;
4432;SDS011;2229;48.708;9.706;2023-03-03T07:03:47;18.03;;;6.27;;
4432;SDS011;2229;48.708;9.706;2023-03-03T07:06:17;22.17;;;9.77;;
4432;SDS011;2229;48.708;9.706;2023-03-03T07:08:47;17.23;;;8.23;;
4432;SDS011;2229;48.708;9.706;2023-03-03T07:11:17;23.70;;;10.60;;
4432;SDS011;2229;48.708;9.706;2023-03-03T07:13:47;22.00;;;8.87;;
4432;SDS011;2229;48.708;9.706;2023-03-03T07:16:16;29.20;;;9.37;;
4432;SDS011;2229;48.708;9.706;2023-03-03T07:18:48;17.03;;;8.53;;
4432;SDS011;2229;48.708;9.706;2023-03-03T07:21:18;27.00;;;8.57;;
4432;SDS011;2229;48.708;9.706;2023-03-03T07:23:48;19.47;;;8.87;;
4432;SDS011;2229;48.708;9.706;2023-03-03T07:26:17;21.93;;;8.67;;
4432;SDS011;2229;48.708;9.706;2023-03-03T07:28:51;18.63;;;8.43;;
4432;SDS011;2229;48.708;9.706;2023-03-03T07:31:28;25.07;;;11.00;;
4432;SDS011;2229;48.708;9.706;2023-03-03T07:33:59;15.53;;;8.03;;
4432;SDS011;2229;48.708;9.706;2023-03-03T07:36:33;27.33;;;9.47;;
4432;SDS011;2229;48.708;9.706;2023-03-03T07:39:10;26.00;;;10.90;;
4432;SDS011;2229;48.708;9.706;2023-03-03T07:41:46;22.50;;;8.80;;
4432;SDS011;2229;48.708;9.706;2023-03-03T07:44:16;27.50;;;10.00;;
4432;SDS011;2229;48.708;9.706;2023-03-03T07:46:48;27.70;;;9.93;;
4432;SDS011;2229;48.708;9.706;2023-03-03T07:49:21;30.77;;;11.50;;
4432;SDS011;2229;48.708;9.706;2023-03-03T07:51:51;23.83;;;9.00;;
4432;SDS011;2229;48.708;9.706;2023-03-03T07:54:26;19.30;;;8.40;;
4432;SDS011;2229;48.708;9.706;2023-03-03T07:56:58;15.90;;;7.83;;
4432;SDS011;2229;48.708;9.706;2023-03-03T07:59:34;25.87;;;9.67;;
4432;SDS011;2229;48.708;9.706;2023-03-03T08:02:02;28.50;;;11.13;;
4432;SDS011;2229;48.708;9.706;2023-03-03T08:04:43;22.10;;;10.37;;
4432;SDS011;2229;48.708;9.706;2023-03-03T08:07:15;21.73;;;10.20;;
4432;SDS011;2229;48.708;9.706;2023-03-03T08:09:45;20.77;;;9.20;;
4432;SDS011;2229;48.708;9.706;2023-03-03T08:12:22;24.00;;;12.57;;
4432;SDS011;2229;48.708;9.706;2023-03-03T08:14:56;28.93;;;12.83;;
4432;SDS011;2229;48.708;9.706;2023-03-03T08:17:35;26.23;;;9.10;;
4432;SDS011;2229;48.708;9.706;2023-03-03T08:20:09;16.00;;;8.60;;
4432;SDS011;2229;48.708;9.706;2023-03-03T08:23:07;26.10;;;10.50;;
4432;SDS011;2229;48.708;9.706;2023-03-03T08:25:36;25.07;;;10.90;;
4432;SDS011;2229;48.708;9.706;2023-03-03T08:28:04;32.23;;;11.30;;
4432;SDS011;2229;48.708;9.706;2023-03-03T08:30:32;24.93;;;8.87;;
4432;SDS011;2229;48.708;9.706;2023-03-03T08:32:59;17.27;;;9.70;;
4432;SDS011;2229;48.708;9.706;2023-03-03T08:35:27;31.13;;;12.13;;
4432;SDS011;2229;48.708;9.706;2023-03-03T08:37:54;28.00;;;10.53;;
4432;SDS011;2229;48.708;9.706;2023-03-03T08:40:21;31.10;;;10.93;;
4432;SDS011;2229;48.708;9.706;2023-03-03T08:42:49;30.03;;;11.93;;
4432;SDS011;2229;48.708;9.706;2023-03-03T08:45:16;28.37;;;10.70;;
4432;SDS011;2229;48.708;9.706;2023-03-03T08:47:45;28.77;;;10.27;;
4432;SDS011;2229;48.708;9.706;2023-03-03T08:50:12;40.13;;;13.87;;
4432;SDS011;2229;48.708;9.706;2023-03-03T08:52:40;22.67;;;10.53;;
4432;SDS011;2229;48.708;9.706;2023-03-03T08:55:07;33.07;;;14.30;;
4432;SDS011;2229;48.708;9.706;2023-03-03T08:57:35;22.63;;;11.27;;
4432;SDS011;2229;48.708;9.706;2023-03-03T09:00:03;36.33;;;13.10;;
4432;SDS011;2229;48.708;9.706;2023-03-03T09:02:32;24.47;;;9.47;;
4432;SDS011;2229;48.708;9.706;2023-03-03T09:05:01;27.63;;;11.23;;
4432;SDS011;2229;48.708;9.706;2023-03-03T09:07:28;33.80;;;10.70;;
4432;SDS011;2229;48.708;9.706;2023-03-03T09:09:56;24.40;;;11.20;;
4432;SDS011;2229;48.708;9.706;2023-03-03T09:12:26;32.03;;;13.03;;
4432;SDS011;2229;48.708;9.706;2023-03-03T09:14:57;28.07;;;9.50;;
4432;SDS011;2229;48.708;9.706;2023-03-03T09:17:28;23.90;;;10.20;;
4432;SDS011;2229;48.708;9.706;2023-03-03T09:19:58;30.50;;;12.50;;
4432;SDS011;2229;48.708;9.706;2023-03-03T09:22:36;30.00;;;9.83;;
4432;SDS011;2229;48.708;9.706;2023-03-03T09:25:05;25.40;;;12.13;;
4432;SDS011;2229;48.708;9.706;2023-03-03T09:27:44;27.43;;;9.97;;
4432;SDS011;2229;48.708;9.706;2023-03-03T09:30:11;38.03;;;14.23;;
4432;SDS011;2229;48.708;9.706;2023-03-03T09:32:53;20.40;;;9.83;;
4432;SDS011;2229;48.708;9.706;2023-03-03T09:35:32;22.20;;;9.57;;
4432;SDS011;2229;48.708;9.706;2023-03-03T09:38:09;31.83;;;11.17;;
4432;SDS011;2229;48.708;9.706;2023-03-03T09:40:50;19.90;;;9.87;;
4432;SDS011;2229;48.708;9.706;2023-03-03T09:43:36;24.10;;;8.77;;
4432;SDS011;2229;48.708;9.706;2023-03-03T09:46:11;25.70;;;10.17;;
4432;SDS011;2229;48.708;9.706;2023-03-03T09:48:49;20.00;;;9.60;;
4432;SDS011;2229;48.708;9.706;2023-03-03T09:54:19;30.93;;;14.23;;
4432;SDS011;2229;48.708;9.706;2023-03-03T09:57:02;26.90;;;9.53;;
4432;SDS011;2229;48.708;9.706;2023-03-03T09:59:38;26.93;;;8.67;;
4432;SDS011;2229;48.708;9.706;2023-03-03T10:02:29;33.30;;;12.47;;
4432;SDS011;2229;48.708;9.706;2023-03-03T10:05:07;20.83;;;8.73;;
4432;SDS011;2229;48.708;9.706;2023-03-03T10:07:47;25.80;;;11.80;;
4432;SDS011;2229;48.708;9.706;2023-03-03T10:10:30;26.03;;;11.40;;
4432;SDS011;2229;48.708;9.706;2023-03-03T10:13:18;27.77;;;11.13;;
4432;SDS011;2229;48.708;9.706;2023-03-03T10:15:53;33.37;;;13.20;;
4432;SDS011;2229;48.708;9.706;2023-03-03T10:18:36;24.73;;;11.67;;
4432;SDS011;2229;48.708;9.706;2023-03-03T10:21:09;29.17;;;12.47;;
4432;SDS011;2229;48.708;9.706;2023-03-03T10:23:44;36.37;;;11.93;;
4432;SDS011;2229;48.708;9.706;2023-03-03T10:26:21;35.23;;;13.97;;
4432;SDS011;2229;48.708;9.706;2023-03-03T10:32:08;30.37;;;11.93;;
4432;SDS011;2229;48.708;9.706;2023-03-03T10:35:00;47.73;;;11.00;;
4432;SDS011;2229;48.708;9.706;2023-03-03T10:37:37;25.07;;;11.57;;
4432;SDS011;2229;48.708;9.706;2023-03-03T10:40:18;27.17;;;12.73;;
4432;SDS011;2229;48.708;9.706;2023-03-03T10:42:59;28.13;;;13.13;;
4432;SDS011;2229;48.708;9.706;2023-03-03T10:45:57;34.10;;;14.83;;
4432;SDS011;2229;48.708;9.706;2023-03-03T10:48:47;30.23;;;11.53;;
4432;SDS011;2229;48.708;9.706;2023-03-03T10:51:33;26.33;;;11.83;;
4432;SDS011;2229;48.708;9.706;2023-03-03T10:54:18;26.37;;;12.47;;
4432;SDS011;2229;48.708;9.706;2023-03-03T10:56:57;29.13;;;12.03;;
4432;SDS011;2229;48.708;9.706;2023-03-03T10:59:36;33.93;;;13.63;;
4432;SDS011;2229;48.708;9.706;2023-03-03T11:02:16;24.20;;;14.17;;
4432;SDS011;2229;48.708;9.706;2023-03-03T11:04:53;23.40;;;11.67;;
4432;SDS011;2229;48.708;9.706;2023-03-03T11:07:32;28.73;;;13.00;;
4432;SDS011;2229;48.708;9.706;2023-03-03T11:10:12;27.50;;;13.87;;
4432;SDS011;2229;48.708;9.706;2023-03-03T11:12:51;31.30;;;12.53;;
4432;SDS011;2229;48.708;9.706;2023-03-03T11:15:33;31.87;;;14.17;;
4432;SDS011;2229;48.708;9.706;2023-03-03T11:18:15;26.43;;;12.53;;
4432;SDS011;2229;48.708;9.706;2023-03-03T11:20:54;35.00;;;12.83;;
4432;SDS011;2229;48.708;9.706;2023-03-03T11:23:35;27.10;;;12.27;;
4432;SDS011;2229;48.708;9.706;2023-03-03T11:26:16;21.73;;;11.07;;
4432;SDS011;2229;48.708;9.706;2023-03-03T11:28:58;24.20;;;10.40;;
4432;SDS011;2229;48.708;9.706;2023-03-03T11:31:37;26.73;;;10.37;;
4432;SDS011;2229;48.708;9.706;2023-03-03T11:34:15;24.70;;;11.10;;
4432;SDS011;2229;48.708;9.706;2023-03-03T11:36:52;20.53;;;9.47;;
4432;SDS011;2229;48.708;9.706;2023-03-03T11:39:27;19.63;;;10.20;;
4432;SDS011;2229;48.708;9.706;2023-03-03T11:41:57;33.70;;;11.00;;
4432;SDS011;2229;48.708;9.706;2023-03-03T11:44:34;34.37;;;11.90;;
4432;SDS011;2229;48.708;9.706;2023-03-03T11:47:04;32.23;;;11.30;;
4432;SDS011;2229;48.708;9.706;2023-03-03T11:49:45;24.60;;;11.43;;
4432;SDS011;2229;48.708;9.706;2023-03-03T11:52:19;20.50;;;10.07;;
4432;SDS011;2229;48.708;9.706;2023-03-03T11:54:52;26.40;;;9.37;;
4432;SDS011;2229;48.708;9.706;2023-03-03T11:57:24;19.73;;;9.27;;
4432;SDS011;2229;48.708;9.706;2023-03-03T11:59:59;14.47;;;6.97;;
4432;SDS011;2229;48.708;9.706;2023-03-03T12:02:45;30.27;;;9.70;;
4432;SDS011;2229;48.708;9.706;2023-03-03T12:05:30;24.87;;;10.00;;
4432;SDS011;2229;48.708;9.706;2023-03-03T12:08:11;27.20;;;9.33;;
4432;SDS011;2229;48.708;9.706;2023-03-03T12:10:47;22.83;;;8.33;;
4432;SDS011;2229;48.708;9.706;2023-03-03T12:13:20;23.97;;;10.90;;
4432;SDS011;2229;48.708;9.706;2023-03-03T12:15:58;18.43;;;8.90;;
4432;SDS011;2229;48.708;9.706;2023-03-03T12:21:24;27.47;;;9.50;;
4432;SDS011;2229;48.708;9.706;2023-03-03T12:26:59;20.97;;;9.90;;
4432;SDS011;2229;48.708;9.706;2023-03-03T12:29:39;16.63;;;6.80;;
4432;SDS011;2229;48.708;9.706;2023-03-03T12:32:16;20.77;;;9.10;;
4432;SDS011;2229;48.708;9.706;2023-03-03T12:34:52;23.40;;;9.80;;
4432;SDS011;2229;48.708;9.706;2023-03-03T12:37:28;19.10;;;9.80;;
4432;SDS011;2229;48.708;9.706;2023-03-03T12:40:15;20.70;;;9.70;;
4432;SDS011;2229;48.708;9.706;2023-03-03T12:42:52;22.50;;;9.53;;
4432;SDS011;2229;48.708;9.706;2023-03-03T12:45:33;18.73;;;7.80;;
4432;SDS011;2229;48.708;9.706;2023-03-03T12:48:12;18.67;;;7.17;;
4432;SDS011;2229;48.708;9.706;2023-03-03T12:50:46;25.27;;;9.33;;
4432;SDS011;2229;48.708;9.706;2023-03-03T12:53:25;20.30;;;7.67;;
4432;SDS011;2229;48.708;9.706;2023-03-03T12:56:05;23.67;;;6.80;;
4432;SDS011;2229;48.708;9.706;2023-03-03T12:58:41;16.53;;;7.50;;
4432;SDS011;2229;48.708;9.706;2023-03-03T13:01:29;28.43;;;7.83;;
4432;SDS011;2229;48.708;9.706;2023-03-03T13:04:10;21.90;;;7.17;;
4432;SDS011;2229;48.708;9.706;2023-03-03T13:06:44;20.07;;;8.20;;
4432;SDS011;2229;48.708;9.706;2023-03-03T13:09:21;15.83;;;8.07;;
4432;SDS011;2229;48.708;9.706;2023-03-03T13:12:04;16.83;;;6.97;;
4432;SDS011;2229;48.708;9.706;2023-03-03T13:14:48;19.90;;;7.60;;
4432;SDS011;2229;48.708;9.706;2023-03-03T13:17:21;14.20;;;5.93;;
4432;SDS011;2229;48.708;9.706;2023-03-03T13:19:55;14.53;;;5.40;;
4432;SDS011;2229;48.708;9.706;2023-03-03T13:22:31;20.60;;;6.30;;
4432;SDS011;2229;48.708;9.706;2023-03-03T13:25:05;16.77;;;7.33;;
4432;SDS011;2229;48.708;9.706;2023-03-03T13:27:45;13.47;;;7.13;;
4432;SDS011;2229;48.708;9.706;2023-03-03T13:30:18;17.40;;;6.80;;
4432;SDS011;2229;48.708;9.706;2023-03-03T13:32:51;20.80;;;8.03;;
4432;SDS011;2229;48.708;9.706;2023-03-03T13:35:28;11.90;;;5.20;;
4432;SDS011;2229;48.708;9.706;2023-03-03T13:38:03;11.17;;;5.73;;
4432;SDS011;2229;48.708;9.706;2023-03-03T13:40:38;15.57;;;6.50;;
4432;SDS011;2229;48.708;9.706;2023-03-03T13:43:11;15.63;;;7.37;;
4432;SDS011;2229;48.708;9.706;2023-03-03T13:45:48;12.27;;;6.10;;
4432;SDS011;2229;48.708;9.706;2023-03-03T13:48:28;20.83;;;8.10;;
4432;SDS011;2229;48.708;9.706;2023-03-03T13:51:12;19.20;;;5.93;;
4432;SDS011;2229;48.708;9.706;2023-03-03T13:53:46;13.97;;;6.40;;
4432;SDS011;2229;48.708;9.706;2023-03-03T13:56:24;24.20;;;9.67;;
4432;SDS011;2229;48.708;9.706;2023-03-03T13:59:02;21.30;;;9.40;;
4432;SDS011;2229;48.708;9.706;2023-03-03T14:01:43;17.13;;;6.70;;
4432;SDS011;2229;48.708;9.706;2023-03-03T14:04:28;17.23;;;7.07;;
4432;SDS011;2229;48.708;9.706;2023-03-03T14:07:02;15.73;;;7.00;;
4432;SDS011;2229;48.708;9.706;2023-03-03T14:09:43;18.17;;;7.00;;
4432;SDS011;2229;48.708;9.706;2023-03-03T14:12:19;15.13;;;5.93;;
4432;SDS011;2229;48.708;9.706;2023-03-03T14:14:54;12.73;;;5.70;;
4432;SDS011;2229;48.708;9.706;2023-03-03T14:17:31;10.57;;;5.20;;
4432;SDS011;2229;48.708;9.706;2023-03-03T14:20:10;12.73;;;5.60;;
4432;SDS011;2229;48.708;9.706;2023-03-03T14:22:45;16.27;;;7.70;;
4432;SDS011;2229;48.708;9.706;2023-03-03T14:25:18;13.90;;;5.57;;
4432;SDS011;2229;48.708;9.706;2023-03-03T14:30:38;14.13;;;6.57;;
4432;SDS011;2229;48.708;9.706;2023-03-03T14:33:18;8.97;;;4.30;;
4432;SDS011;2229;48.708;9.706;2023-03-03T14:35:49;9.43;;;4.50;;
4432;SDS011;2229;48.708;9.706;2023-03-03T14:38:38;18.50;;;7.37;;
4432;SDS011;2229;48.708;9.706;2023-03-03T14:41:12;9.70;;;4.20;;
4432;SDS011;2229;48.708;9.706;2023-03-03T14:43:42;13.70;;;6.33;;
4432;SDS011;2229;48.708;9.706;2023-03-03T14:46:28;17.00;;;6.93;;
4432;SDS011;2229;48.708;9.706;2023-03-03T14:49:02;15.97;;;6.77;;
4432;SDS011;2229;48.708;9.706;2023-03-03T14:51:37;12.63;;;7.00;;
4432;SDS011;2229;48.708;9.706;2023-03-03T14:54:10;11.33;;;6.13;;
4432;SDS011;2229;48.708;9.706;2023-03-03T14:56:59;12.90;;;5.60;;
4432;SDS011;2229;48.708;9.706;2023-03-03T14:59:31;14.70;;;5.80;;
4432;SDS011;2229;48.708;9.706;2023-03-03T15:02:02;11.30;;;6.40;;
4432;SDS011;2229;48.708;9.706;2023-03-03T15:04:50;18.77;;;8.10;;
4432;SDS011;2229;48.708;9.706;2023-03-03T15:07:38;21.77;;;8.10;;
4432;SDS011;2229;48.708;9.706;2023-03-03T15:10:08;14.70;;;6.47;;
4432;SDS011;2229;48.708;9.706;2023-03-03T15:12:38;11.10;;;5.53;;
4432;SDS011;2229;48.708;9.706;2023-03-03T15:15:10;16.77;;;7.47;;
4432;SDS011;2229;48.708;9.706;2023-03-03T15:17:52;14.37;;;5.93;;
4432;SDS011;2229;48.708;9.706;2023-03-03T15:23:10;18.20;;;6.23;;
4432;SDS011;2229;48.708;9.706;2023-03-03T15:25:50;26.27;;;6.70;;
4432;SDS011;2229;48.708;9.706;2023-03-03T15:28:25;15.00;;;4.87;;
4432;SDS011;2229;48.708;9.706;2023-03-03T15:31:07;16.33;;;6.00;;
4432;SDS011;2229;48.708;9.706;2023-03-03T15:33:45;13.40;;;5.63;;
4432;SDS011;2229;48.708;9.706;2023-03-03T15:36:22;10.00;;;4.67;;
4432;SDS011;2229;48.708;9.706;2023-03-03T15:38:58;9.90;;;4.40;;
4432;SDS011;2229;48.708;9.706;2023-03-03T15:41:38;14.10;;;4.87;;
4432;SDS011;2229;48.708;9.706;2023-03-03T15:44:14;9.63;;;4.60;;
4432;SDS011;2229;48.708;9.706;2023-03-03T15:46:56;15.27;;;5.77;;
4432;SDS011;2229;48.708;9.706;2023-03-03T15:49:47;14.40;;;6.83;;